Accueil
METAR-TAF:

METAR-TAF

Aéroports :

Lawrence Municipal Airport

Lawrence, Kansas, États-Unis

latitude: 39-00-30N, longitude: 095-12-42W, altitude: 253 m

Observation

Le bulletin a été fait il y a 17 minutes, à 07:52 UTC
Vent 7 kt de sud
Température 27°C
Humidité 70%
Pression 1015 hPa
Visibilité: 16.1 km
Ciel clair

METAR: KLWC 140752Z AUTO 18007KT 10SM CLR 27/21 A2998 RMK AO1 LTG DSNT NE SLP140 T02720206

Heure: 03:09 (08:09 UTC)


TAF: absent

Observations et prévisions météorologiques de plus de 4000 aéroports (messages METAR et TAF).

Les stations disponibles sont représentées par des disques jaunes et rouges sur la carte.

Passer la souris dessus pour voir le nom de la station.

Cliquer dessus pour voir les observations et prévisions météorologiques.

Pour changer de carte: cliquez sur les boutons verts avec une croix noire pour zoomer, sur le bouton vert avec un tiret pour effectuer un zoom arrière, ou sur les flèches vertes pour les cartes adjacentes.


METAR-TAF: